This is the latest recevied weather packets stored in our database for station/object IK4PKL-13. If no packets are shown the sender has not sent any weather packets the latest 10 day(s).
| Time | Temp. | Humidity | Pressure | Rain* | Wind** | Luminosity | Snow |
|---|---|---|---|---|---|---|---|
| 1777734930 | 21.11° C | 33% | 1025.5 hPa | 0 mm | - | 325 W/m² | - |
| 1777731366 | 21.11° C | 32% | 1026.1 hPa | 0 mm | - | 466 W/m² | - |
| 1777724146 | 21.11° C | 32% | 1027.4 hPa | 0 mm | - | 660 W/m² | - |
| 1777722342 | 21.11° C | 35% | 1027.7 hPa | 0 mm | - | 137 W/m² | - |
| 1777721758 | 21.11° C | 35% | 1027.8 hPa | 0 mm | - | 679 W/m² | - |
| 1777712738 | 20° C | 35% | 1029 hPa | 0 mm | - | 582 W/m² | - |
| 1777704945 | 16.11° C | 44% | 1029.4 hPa | 0 mm | - | 161 W/m² | - |
| 1777704337 | 16.11° C | 45% | 1029.5 hPa | 0 mm | - | 248 W/m² | - |
| 1777700721 | 11.67° C | 60% | 1029.5 hPa | 0 mm | - | 125 W/m² | - |
| 1777699540 | 10° C | 62% | 1029.5 hPa | 0 mm | - | 86 W/m² | - |
| 1777696530 | 8.33° C | 67% | 1029.3 hPa | 0 mm | - | 21 W/m² | - |
| 1777695943 | 7.78° C | 67% | 1029.2 hPa | 0 mm | - | 14 W/m² | - |
| 1777692948 | 7.78° C | 66% | 1029.1 hPa | 0 mm | - | 0 W/m² | - |
| 1777692338 | 7.78° C | 65% | 1029.1 hPa | 0 mm | - | 0 W/m² | - |
| 1777689366 | 8.89° C | 60% | 1029.1 hPa | 0 mm | - | 0 W/m² | - |
| 1777679730 | 8.33° C | 64% | 1029.8 hPa | 0 mm | - | 0 W/m² | - |
| 1777679124 | 8.33° C | 65% | 1029.8 hPa | 0 mm | - | 0 W/m² | - |
| 1777674341 | 8.89° C | 64% | 1029.7 hPa | 0 mm | - | 0 W/m² | - |
| 1777673123 | 8.33° C | 66% | 1029.6 hPa | 0 mm | - | 0 W/m² | - |
| 1777670171 | 9.44° C | 66% | 1029.4 hPa | 0 mm | - | 0 W/m² | - |
| 1777665940 | 11.11° C | 59% | 1029 hPa | 0 mm | - | 0 W/m² | - |
| 1777664146 | 12.22° C | 50% | 1028.8 hPa | 0 mm | - | 0 W/m² | - |
| 1777661745 | 13.33° C | 48% | 1028.7 hPa | 0 mm | - | 0 W/m² | - |
| 1777660530 | 14.44° C | 42% | 1028.5 hPa | 0 mm | - | 0 W/m² | - |
| 1777658721 | 16.11° C | 37% | 1028.4 hPa | 0 mm | - | 7 W/m² | - |
* Rain latest hour (hover to see other rain measurements)
** Current wind speed in m/s (hover to see current wind gust speed)